Clay, New York
Current Conditions -  °F | °C
As of 1:54 PM on Thursday 30 Oct 2014 (Local Time) from KSYR Reporting Station
Overcast Overcast  
Wind Chill: 46°   Ceiling: 4100
Heat Index: 48°   Visibility: 10mi
Dew Point: 38°   Wind: 5mph
Humidity: 68%   Direction: 330°NNW
Pressure: 30.03"   Gusts: NA
Location:  43.19°N, 76.17°W
Report Text: KSYR 301754Z 33004KT 10SM SCT029 OVC041 09/03 A3003 RMK AO2 SLP167 60003 T00890033 10089 20067 58001
Loading
Personal Weather Stations






























Interactive Weather Map
Tropical Storm Tracking
New forecast layout! Learn more

10-Day Weather Forecast

Advertisements
Track Severe Weather on mobile